^^
Datos históricos de la estación: Murcia-Puente Tocinos
Diario Informe para Febrero 14, 2019 Unidades:  Ambas    Inglés   Métrico
Diario Semanal Mensual Anual Configurable
  Máximo: Mínimo: Media:
Temperatura: 59.7 °F /  15.4 °C 51.4 °F /  10.8 °C 54.3 °F /  12.4 °C
Punto de rocio: 46.9 °F /  8.3 °C 42.4 °F /  5.8 °C 44.2 °F /  6.8 °C
Humedad: 79% 56% 69%
Velocidad viento: 10.2mph /  16.4km/h - 4.2mph /  6.7km/h
Racha viento: 19.6mph /  31.5km/h - -
Viento- - ESE
Presión: 30.5 in /  1032.9 hPa 30.4 in /  1029.4 hPa -
Precipitación: 0 in /  0.0 mm    
Historical Graphs
 
 
Tabla de datos para Febrero 14, 2019
Hora Temperatura Punto de rocio Presión Viento Velocidad viento Racha viento Humedad Intensidad lluvia(por hora) Nubes
00:00 51.6 °F /  10.9 °C 43.3 °F /  6.3 °C 30.5in /  1031.3hPa SSE 3mph /  4.8km/h 5mph /  8.0km/h 73% 0in /  0.0mm CLR
00:05 51.8 °F /  11.0 °C 43.2 °F /  6.2 °C 30.5in /  1031.4hPa South 3.1mph /  5.0km/h 4.6mph /  7.4km/h 72% 0in /  0.0mm CLR
00:10 51.8 °F /  11.0 °C 43.2 °F /  6.2 °C 30.5in /  1031.4hPa South 2.9mph /  4.7km/h 2.9mph /  4.7km/h 72% 0in /  0.0mm CLR
00:15 52 °F /  11.1 °C 43.2 °F /  6.2 °C 30.5in /  1031.4hPa South 2.9mph /  4.7km/h 4.6mph /  7.4km/h 72% 0in /  0.0mm CLR
00:20 52 °F /  11.1 °C 43.2 °F /  6.2 °C 30.5in /  1031.4hPa SSE 2.9mph /  4.7km/h 3.5mph /  5.6km/h 72% 0in /  0.0mm CLR
00:25 51.8 °F /  11.0 °C 43.2 °F /  6.2 °C 30.5in /  1031.4hPa SSE 2.9mph /  4.7km/h 4.6mph /  7.4km/h 72% 0in /  0.0mm CLR
00:30 52 °F /  11.1 °C 43.2 °F /  6.2 °C 30.5in /  1031.4hPa SSE 2.4mph /  3.9km/h 4.6mph /  7.4km/h 72% 0in /  0.0mm CLR
00:35 51.8 °F /  11.0 °C 43.2 °F /  6.2 °C 30.5in /  1031.3hPa South 2.4mph /  3.9km/h 4.6mph /  7.4km/h 72% 0in /  0.0mm CLR
00:40 51.8 °F /  11.0 °C 43.2 °F /  6.2 °C 30.5in /  1031.3hPa South 3.6mph /  5.8km/h 4.6mph /  7.4km/h 72% 0in /  0.0mm CLR
00:45 52 °F /  11.1 °C 43.2 °F /  6.2 °C 30.5in /  1031.3hPa South 3.6mph /  5.8km/h 3.5mph /  5.6km/h 72% 0in /  0.0mm CLR
00:50 52 °F /  11.1 °C 43.2 °F /  6.2 °C 30.5in /  1031.4hPa South 2.4mph /  3.9km/h 3.5mph /  5.6km/h 72% 0in /  0.0mm CLR
00:55 52 °F /  11.1 °C 43.2 °F /  6.2 °C 30.5in /  1031.4hPa SSE 2.4mph /  3.9km/h 4.6mph /  7.4km/h 72% 0in /  0.0mm CLR
01:00 52 °F /  11.1 °C 43.2 °F /  6.2 °C 30.5in /  1031.4hPa South 2mph /  3.2km/h 5mph /  8.0km/h 72% 0in /  0.0mm CLR
01:05 51.8 °F /  11.0 °C 43.2 °F /  6.2 °C 30.5in /  1031.4hPa SW 2.9mph /  4.7km/h 4.6mph /  7.4km/h 72% 0in /  0.0mm CLR
01:10 51.8 °F /  11.0 °C 43.2 °F /  6.2 °C 30.5in /  1031.4hPa SW 2.9mph /  4.7km/h 3.6mph /  5.8km/h 72% 0in /  0.0mm CLR
01:15 52 °F /  11.1 °C 43 °F /  6.1 °C 30.5in /  1031.4hPa SSE 2.9mph /  4.7km/h 4.6mph /  7.4km/h 71% 0in /  0.0mm CLR
01:20 51.8 °F /  11.0 °C 42.6 °F /  5.9 °C 30.5in /  1031.5hPa South 2.9mph /  4.7km/h 4.7mph /  7.6km/h 71% 0in /  0.0mm CLR
01:25 51.8 °F /  11.0 °C 42.6 °F /  5.9 °C 30.5in /  1031.5hPa SSW 2.9mph /  4.7km/h 4.6mph /  7.4km/h 71% 0in /  0.0mm CLR
01:30 51.8 °F /  11.0 °C 42.6 °F /  5.9 °C 30.5in /  1031.5hPa SSW 3.6mph /  5.8km/h 3.5mph /  5.6km/h 71% 0in /  0.0mm CLR
01:35 52 °F /  11.1 °C 43 °F /  6.1 °C 30.5in /  1031.4hPa SSW 3.6mph /  5.8km/h 4.6mph /  7.4km/h 71% 0in /  0.0mm CLR
01:40 52 °F /  11.1 °C 43 °F /  6.1 °C 30.5in /  1031.4hPa SSW 3.1mph /  5.0km/h 5.8mph /  9.3km/h 71% 0in /  0.0mm CLR
01:45 52 °F /  11.1 °C 43 °F /  6.1 °C 30.5in /  1031.4hPa South 3.1mph /  5.0km/h 4.6mph /  7.4km/h 71% 0in /  0.0mm CLR
01:50 52.2 °F /  11.2 °C 43 °F /  6.1 °C 30.5in /  1031.4hPa SSW 3.1mph /  5.0km/h 4.6mph /  7.4km/h 71% 0in /  0.0mm CLR
01:55 52 °F /  11.1 °C 43 °F /  6.1 °C 30.5in /  1031.4hPa SSW 3.1mph /  5.0km/h 4.6mph /  7.4km/h 71% 0in /  0.0mm CLR
02:00 52.2 °F /  11.2 °C 43 °F /  6.1 °C 30.5in /  1031.4hPa South 3mph /  4.8km/h 6mph /  9.7km/h 71% 0in /  0.0mm CLR
02:05 52 °F /  11.1 °C 42.4 °F /  5.8 °C 30.5in /  1031.3hPa SSE 3.1mph /  5.0km/h 5.8mph /  9.3km/h 70% 0in /  0.0mm CLR
02:10 51.8 °F /  11.0 °C 42.6 °F /  5.9 °C 30.5in /  1031.3hPa SSW 4mph /  6.4km/h 4.6mph /  7.4km/h 71% 0in /  0.0mm CLR
02:15 51.6 °F /  10.9 °C 42.4 °F /  5.8 °C 30.5in /  1031.3hPa SSW 4mph /  6.4km/h 4.6mph /  7.4km/h 71% 0in /  0.0mm CLR
02:20 51.6 °F /  10.9 °C 42.4 °F /  5.8 °C 30.5in /  1031.4hPa SSW 4.3mph /  6.9km/h 5.8mph /  9.3km/h 71% 0in /  0.0mm CLR
02:25 51.6 °F /  10.9 °C 42.4 °F /  5.8 °C 30.5in /  1031.4hPa SSW 4.3mph /  6.9km/h 4.7mph /  7.6km/h 71% 0in /  0.0mm CLR
02:30 51.6 °F /  10.9 °C 42.4 °F /  5.8 °C 30.5in /  1031.4hPa South 3.6mph /  5.8km/h 4.6mph /  7.4km/h 71% 0in /  0.0mm CLR
02:35 51.6 °F /  10.9 °C 42.4 °F /  5.8 °C 30.5in /  1031.3hPa SSW 3.6mph /  5.8km/h 4.6mph /  7.4km/h 71% 0in /  0.0mm CLR
02:40 51.6 °F /  10.9 °C 42.4 °F /  5.8 °C 30.5in /  1031.3hPa SSE 3.6mph /  5.8km/h 4.6mph /  7.4km/h 71% 0in /  0.0mm CLR
02:45 51.6 °F /  10.9 °C 42.4 °F /  5.8 °C 30.5in /  1031.3hPa SSW 3.6mph /  5.8km/h 4.6mph /  7.4km/h 71% 0in /  0.0mm CLR
02:50 51.8 °F /  11.0 °C 42.6 °F /  5.9 °C 30.5in /  1031.3hPa SSW 3.1mph /  5.0km/h 3.5mph /  5.6km/h 71% 0in /  0.0mm CLR
02:55 51.8 °F /  11.0 °C 42.6 °F /  5.9 °C 30.5in /  1031.3hPa South 3.1mph /  5.0km/h 4.6mph /  7.4km/h 71% 0in /  0.0mm CLR
03:00 52 °F /  11.1 °C 42.8 °F /  6.0 °C 30.5in /  1031.3hPa South 2mph /  3.2km/h 5mph /  8.0km/h 71% 0in /  0.0mm CLR
03:05 52 °F /  11.1 °C 43 °F /  6.1 °C 30.5in /  1031.2hPa SSE 2.4mph /  3.9km/h 4.6mph /  7.4km/h 71% 0in /  0.0mm CLR
03:10 52 °F /  11.1 °C 43 °F /  6.1 °C 30.5in /  1031.2hPa South 3.6mph /  5.8km/h 4.6mph /  7.4km/h 71% 0in /  0.0mm CLR
03:15 52 °F /  11.1 °C 43 °F /  6.1 °C 30.5in /  1031.2hPa South 3.6mph /  5.8km/h 5.2mph /  8.4km/h 71% 0in /  0.0mm CLR
03:20 52 °F /  11.1 °C 43 °F /  6.1 °C 30.5in /  1031.2hPa SSW 2.9mph /  4.7km/h 2.3mph /  3.7km/h 71% 0in /  0.0mm CLR
03:25 52 °F /  11.1 °C 43 °F /  6.1 °C 30.5in /  1031.2hPa South 2.9mph /  4.7km/h 2.4mph /  3.9km/h 71% 0in /  0.0mm CLR
03:30 52 °F /  11.1 °C 43 °F /  6.1 °C 30.5in /  1031.2hPa South 2.4mph /  3.9km/h 3.6mph /  5.8km/h 71% 0in /  0.0mm CLR
03:35 52 °F /  11.1 °C 43 °F /  6.1 °C 30.5in /  1031.1hPa South 2.4mph /  3.9km/h 3.5mph /  5.6km/h 71% 0in /  0.0mm CLR
03:40 52.2 °F /  11.2 °C 43 °F /  6.1 °C 30.5in /  1031.1hPa South 2.4mph /  3.9km/h 4.6mph /  7.4km/h 71% 0in /  0.0mm CLR
03:45 52.2 °F /  11.2 °C 43 °F /  6.1 °C 30.5in /  1031.1hPa South 2.4mph /  3.9km/h 3.5mph /  5.6km/h 71% 0in /  0.0mm CLR
03:50 52.2 °F /  11.2 °C 43 °F /  6.1 °C 30.5in /  1031.1hPa South 2.4mph /  3.9km/h 3.5mph /  5.6km/h 71% 0in /  0.0mm CLR
03:55 52.2 °F /  11.2 °C 43 °F /  6.1 °C 30.5in /  1031.1hPa South 2.4mph /  3.9km/h 2.3mph /  3.7km/h 71% 0in /  0.0mm CLR
04:00 52.3 °F /  11.3 °C 42.8 °F /  6.0 °C 30.5in /  1031.1hPa South 2mph /  3.2km/h 2mph /  3.2km/h 70% 0in /  0.0mm CLR
04:05 52.3 °F /  11.3 °C 42.8 °F /  6.0 °C 30.4in /  1031.0hPa South 1.8mph /  2.9km/h   70% 0in /  0.0mm CLR
04:10 52.3 °F /  11.3 °C 42.8 °F /  6.0 °C 30.4in /  1031.0hPa Calm   2.3mph /  3.7km/h 70% 0in /  0.0mm CLR
04:15 52.3 °F /  11.3 °C 42.8 °F /  6.0 °C 30.4in /  1031.0hPa Calm   3.5mph /  5.6km/h 70% 0in /  0.0mm CLR
04:20 52.3 °F /  11.3 °C 42.8 °F /  6.0 °C 30.4in /  1031.0hPa South 2mph /  3.2km/h 3.5mph /  5.6km/h 70% 0in /  0.0mm CLR
04:25 52.2 °F /  11.2 °C 42.6 °F /  5.9 °C 30.4in /  1031.0hPa South 2mph /  3.2km/h 3.5mph /  5.6km/h 70% 0in /  0.0mm CLR
04:30 52.2 °F /  11.2 °C 43 °F /  6.1 °C 30.4in /  1031.0hPa South 2.9mph /  4.7km/h 3.5mph /  5.6km/h 71% 0in /  0.0mm CLR
04:35 52.2 °F /  11.2 °C 43 °F /  6.1 °C 30.4in /  1031.0hPa SSW 2.9mph /  4.7km/h 5.8mph /  9.3km/h 71% 0in /  0.0mm CLR
04:40 52.2 °F /  11.2 °C 43 °F /  6.1 °C 30.4in /  1031.0hPa SSW 2.9mph /  4.7km/h 3.5mph /  5.6km/h 71% 0in /  0.0mm CLR
04:45 52 °F /  11.1 °C 43 °F /  6.1 °C 30.4in /  1031.0hPa SSW 2.9mph /  4.7km/h 4.6mph /  7.4km/h 71% 0in /  0.0mm CLR
04:50 52 °F /  11.1 °C 43 °F /  6.1 °C 30.4in /  1031.0hPa SSW 2mph /  3.2km/h 4.6mph /  7.4km/h 71% 0in /  0.0mm CLR
04:55 52 °F /  11.1 °C 43.2 °F /  6.2 °C 30.4in /  1031.0hPa SSW 2mph /  3.2km/h 4.6mph /  7.4km/h 72% 0in /  0.0mm CLR
05:00 52 °F /  11.1 °C 43.2 °F /  6.2 °C 30.4in /  1031.0hPa SSW 3mph /  4.8km/h 5mph /  8.0km/h 72% 0in /  0.0mm CLR
05:05 51.8 °F /  11.0 °C 43.2 °F /  6.2 °C 30.5in /  1031.2hPa South 3.6mph /  5.8km/h 5.8mph /  9.3km/h 72% 0in /  0.0mm CLR
05:10 51.6 °F /  10.9 °C 43 °F /  6.1 °C 30.5in /  1031.2hPa SSW 3.6mph /  5.8km/h 5.8mph /  9.3km/h 72% 0in /  0.0mm CLR
05:15 51.6 °F /  10.9 °C 43 °F /  6.1 °C 30.5in /  1031.2hPa South 3.6mph /  5.8km/h 5.8mph /  9.3km/h 72% 0in /  0.0mm CLR
05:20 51.6 °F /  10.9 °C 43 °F /  6.1 °C 30.5in /  1031.3hPa SSW 4mph /  6.4km/h 4.6mph /  7.4km/h 72% 0in /  0.0mm CLR
05:25 51.6 °F /  10.9 °C 43.2 °F /  6.2 °C 30.5in /  1031.3hPa SSW 4mph /  6.4km/h 4.6mph /  7.4km/h 73% 0in /  0.0mm CLR
05:30 51.6 °F /  10.9 °C 43.2 °F /  6.2 °C 30.5in /  1031.3hPa SSW 2.9mph /  4.7km/h 3.5mph /  5.6km/h 73% 0in /  0.0mm CLR
05:35 51.6 °F /  10.9 °C 43.2 °F /  6.2 °C 30.5in /  1031.3hPa SSW 2.9mph /  4.7km/h 2.4mph /  3.9km/h 73% 0in /  0.0mm CLR
05:40 51.6 °F /  10.9 °C 43.2 °F /  6.2 °C 30.5in /  1031.3hPa SSW 2mph /  3.2km/h 3.5mph /  5.6km/h 73% 0in /  0.0mm CLR
05:45 51.8 °F /  11.0 °C 43.2 °F /  6.2 °C 30.5in /  1031.3hPa SSW 2mph /  3.2km/h 2.3mph /  3.7km/h 72% 0in /  0.0mm CLR
05:50 51.8 °F /  11.0 °C 43.2 °F /  6.2 °C 30.5in /  1031.4hPa SSW 2mph /  3.2km/h 2.3mph /  3.7km/h 72% 0in /  0.0mm CLR
05:55 52 °F /  11.1 °C 43.5 °F /  6.4 °C 30.5in /  1031.4hPa SSW 2mph /  3.2km/h   73% 0in /  0.0mm CLR
06:00 51.8 °F /  11.0 °C 43.3 °F /  6.3 °C 30.5in /  1031.4hPa Calm     73% 0in /  0.0mm CLR
06:05 51.8 °F /  11.0 °C 43.3 °F /  6.3 °C 30.5in /  1031.5hPa Calm   2mph /  3.2km/h 73% 0in /  0.0mm CLR
06:10 51.8 °F /  11.0 °C 43.3 °F /  6.3 °C 30.5in /  1031.5hPa Calm   2.3mph /  3.7km/h 73% 0in /  0.0mm CLR
06:15 52 °F /  11.1 °C 43.5 °F /  6.4 °C 30.5in /  1031.5hPa Calm   1.2mph /  1.9km/h 73% 0in /  0.0mm CLR
06:20 52 °F /  11.1 °C 43.2 °F /  6.2 °C 30.5in /  1031.6hPa Calm   3.5mph /  5.6km/h 72% 0in /  0.0mm CLR
06:25 51.8 °F /  11.0 °C 43.2 °F /  6.2 °C 30.5in /  1031.6hPa Calm     72% 0in /  0.0mm CLR
06:30 52 °F /  11.1 °C 43.2 °F /  6.2 °C 30.5in /  1031.6hPa SSW 1.4mph /  2.3km/h   72% 0in /  0.0mm CLR
06:35 52 °F /  11.1 °C 43.2 °F /  6.2 °C 30.5in /  1031.7hPa SSW 1.4mph /  2.3km/h   72% 0in /  0.0mm CLR
06:40 52 °F /  11.1 °C 43.2 °F /  6.2 °C 30.5in /  1031.7hPa Calm   4.6mph /  7.4km/h 72% 0in /  0.0mm CLR
06:45 52 °F /  11.1 °C 43.2 °F /  6.2 °C 30.5in /  1031.7hPa Calm   2.4mph /  3.9km/h 72% 0in /  0.0mm CLR
06:50 51.8 °F /  11.0 °C 43.2 °F /  6.2 °C 30.5in /  1031.8hPa SSW 1.8mph /  2.9km/h   72% 0in /  0.0mm CLR
06:55 51.8 °F /  11.0 °C 43.2 °F /  6.2 °C 30.5in /  1031.8hPa SSW 1.8mph /  2.9km/h 5.2mph /  8.4km/h 72% 0in /  0.0mm CLR
07:00 51.6 °F /  10.9 °C 43 °F /  6.1 °C 30.5in /  1031.8hPa SSW 2mph /  3.2km/h 5mph /  8.0km/h 72% 0in /  0.0mm CLR
07:05 51.6 °F /  10.9 °C 43 °F /  6.1 °C 30.5in /  1031.8hPa SSW 1.8mph /  2.9km/h 2.3mph /  3.7km/h 72% 0in /  0.0mm CLR
07:10 51.6 °F /  10.9 °C 43 °F /  6.1 °C 30.5in /  1031.8hPa SSW 1.8mph /  2.9km/h 3.5mph /  5.6km/h 72% 0in /  0.0mm CLR
07:15 51.6 °F /  10.9 °C 43 °F /  6.1 °C 30.5in /  1031.8hPa SSW 1.8mph /  2.9km/h 4.6mph /  7.4km/h 72% 0in /  0.0mm CLR
07:20 51.4 °F /  10.8 °C 42.6 °F /  5.9 °C 30.5in /  1031.8hPa SSW 2.9mph /  4.7km/h 4.6mph /  7.4km/h 72% 0in /  0.0mm CLR
07:25 51.4 °F /  10.8 °C 42.6 °F /  5.9 °C 30.5in /  1031.8hPa SSW 2.9mph /  4.7km/h 5.8mph /  9.3km/h 72% 0in /  0.0mm CLR
07:30 51.4 °F /  10.8 °C 42.6 °F /  5.9 °C 30.5in /  1031.8hPa SSW 2.9mph /  4.7km/h 3.6mph /  5.8km/h 72% 0in /  0.0mm CLR
07:35 51.4 °F /  10.8 °C 42.6 °F /  5.9 °C 30.5in /  1031.7hPa SSW 2.9mph /  4.7km/h 4.6mph /  7.4km/h 72% 0in /  0.0mm CLR
07:40 51.4 °F /  10.8 °C 42.6 °F /  5.9 °C 30.5in /  1031.7hPa SSW 2.9mph /  4.7km/h 4.6mph /  7.4km/h 72% 0in /  0.0mm CLR
07:45 51.4 °F /  10.8 °C 42.6 °F /  5.9 °C 30.5in /  1031.7hPa SSW 2.9mph /  4.7km/h 4.6mph /  7.4km/h 72% 0in /  0.0mm CLR
07:50 51.4 °F /  10.8 °C 42.6 °F /  5.9 °C 30.5in /  1031.9hPa SSW 2.4mph /  3.9km/h 2.9mph /  4.7km/h 72% 0in /  0.0mm CLR
07:55 51.4 °F /  10.8 °C 42.6 °F /  5.9 °C 30.5in /  1031.9hPa SSW 2.4mph /  3.9km/h 2.3mph /  3.7km/h 72% 0in /  0.0mm CLR
08:00 51.4 °F /  10.8 °C 42.6 °F /  5.9 °C 30.5in /  1031.9hPa SSW 2mph /  3.2km/h 4mph /  6.4km/h 72% 0in /  0.0mm CLR
08:05 51.4 °F /  10.8 °C 42.6 °F /  5.9 °C 30.5in /  1031.9hPa SSW 2.4mph /  3.9km/h 4.6mph /  7.4km/h 72% 0in /  0.0mm CLR
08:10 51.4 °F /  10.8 °C 43.2 °F /  6.2 °C 30.5in /  1031.9hPa SSW 2.4mph /  3.9km/h 2.3mph /  3.7km/h 73% 0in /  0.0mm CLR
08:15 51.4 °F /  10.8 °C 42.6 °F /  5.9 °C 30.5in /  1031.9hPa SSW 2.4mph /  3.9km/h 4.6mph /  7.4km/h 72% 0in /  0.0mm CLR
08:20 51.4 °F /  10.8 °C 42.6 °F /  5.9 °C 30.5in /  1032.1hPa SSW 2.4mph /  3.9km/h 4.6mph /  7.4km/h 72% 0in /  0.0mm CLR
08:25 51.4 °F /  10.8 °C 42.6 °F /  5.9 °C 30.5in /  1032.1hPa SSW 2.4mph /  3.9km/h 4.6mph /  7.4km/h 72% 0in /  0.0mm CLR
08:30 51.6 °F /  10.9 °C 43 °F /  6.1 °C 30.5in /  1032.1hPa South 3.1mph /  5.0km/h 3.5mph /  5.6km/h 72% 0in /  0.0mm CLR
08:35 51.6 °F /  10.9 °C 43 °F /  6.1 °C 30.5in /  1032.2hPa South 3.1mph /  5.0km/h 5.8mph /  9.3km/h 72% 0in /  0.0mm CLR
08:40 51.6 °F /  10.9 °C 43 °F /  6.1 °C 30.5in /  1032.2hPa SSW 3.1mph /  5.0km/h 5.8mph /  9.3km/h 72% 0in /  0.0mm CLR
08:45 51.6 °F /  10.9 °C 43 °F /  6.1 °C 30.5in /  1032.2hPa SSW 3.1mph /  5.0km/h 5.8mph /  9.3km/h 72% 0in /  0.0mm CLR
08:50 51.8 °F /  11.0 °C 43.2 °F /  6.2 °C 30.5in /  1032.4hPa SSW 4mph /  6.4km/h 4.6mph /  7.4km/h 72% 0in /  0.0mm CLR
08:55 52 °F /  11.1 °C 43.2 °F /  6.2 °C 30.5in /  1032.4hPa SSW 4mph /  6.4km/h 4.6mph /  7.4km/h 72% 0in /  0.0mm CLR
09:00 52 °F /  11.1 °C 43.2 °F /  6.2 °C 30.5in /  1032.4hPa SSW 3mph /  4.8km/h 6mph /  9.7km/h 72% 0in /  0.0mm CLR
09:05 52.2 °F /  11.2 °C 43 °F /  6.1 °C 30.5in /  1032.4hPa SSW 3.1mph /  5.0km/h 4.7mph /  7.6km/h 71% 0in /  0.0mm CLR
09:10 52.2 °F /  11.2 °C 43.3 °F /  6.3 °C 30.5in /  1032.4hPa SSW 3.1mph /  5.0km/h 3.5mph /  5.6km/h 72% 0in /  0.0mm CLR
09:15 52.2 °F /  11.2 °C 43.3 °F /  6.3 °C 30.5in /  1032.4hPa SSW 3.1mph /  5.0km/h   72% 0in /  0.0mm CLR
09:20 52.3 °F /  11.3 °C 43.2 °F /  6.2 °C 30.5in /  1032.5hPa SSW 1.8mph /  2.9km/h 4mph /  6.4km/h 71% 0in /  0.0mm CLR
09:25 52.5 °F /  11.4 °C 43.3 °F /  6.3 °C 30.5in /  1032.5hPa SSW 1.8mph /  2.9km/h 4.6mph /  7.4km/h 71% 0in /  0.0mm CLR
09:30 52.5 °F /  11.4 °C 43.3 °F /  6.3 °C 30.5in /  1032.5hPa SSW 2.4mph /  3.9km/h 3.5mph /  5.6km/h 71% 0in /  0.0mm CLR
09:35 52.9 °F /  11.6 °C 43.3 °F /  6.3 °C 30.5in /  1032.6hPa SSW 2.4mph /  3.9km/h 2.3mph /  3.7km/h 70% 0in /  0.0mm CLR
09:40 53.1 °F /  11.7 °C 43.5 °F /  6.4 °C 30.5in /  1032.6hPa SSW 2mph /  3.2km/h 4.6mph /  7.4km/h 70% 0in /  0.0mm CLR
09:45 53.2 °F /  11.8 °C 43.3 °F /  6.3 °C 30.5in /  1032.6hPa SSW 2mph /  3.2km/h 3.5mph /  5.6km/h 69% 0in /  0.0mm CLR
09:50 53.2 °F /  11.8 °C 43.3 °F /  6.3 °C 30.5in /  1032.6hPa SSW 2mph /  3.2km/h 4.6mph /  7.4km/h 69% 0in /  0.0mm CLR
09:55 53.4 °F /  11.9 °C 43.2 °F /  6.2 °C 30.5in /  1032.6hPa SSW 2mph /  3.2km/h 4.6mph /  7.4km/h 68% 0in /  0.0mm CLR
10:00 53.8 °F /  12.1 °C 43.5 °F /  6.4 °C 30.5in /  1032.6hPa SSW 2mph /  3.2km/h 4mph /  6.4km/h 68% 0in /  0.0mm CLR
10:05 54.1 °F /  12.3 °C 43.3 °F /  6.3 °C 30.5in /  1032.7hPa SSW 2mph /  3.2km/h 2.9mph /  4.7km/h 67% 0in /  0.0mm CLR
10:10 54.3 °F /  12.4 °C 43.2 °F /  6.2 °C 30.5in /  1032.7hPa Calm   3.5mph /  5.6km/h 66% 0in /  0.0mm CLR
10:15 54.5 °F /  12.5 °C 43.3 °F /  6.3 °C 30.5in /  1032.7hPa Calm   4mph /  6.4km/h 66% 0in /  0.0mm CLR
10:20 54.9 °F /  12.7 °C 43.7 °F /  6.5 °C 30.5in /  1032.7hPa NW 2mph /  3.2km/h 4.6mph /  7.4km/h 66% 0in /  0.0mm CLR
10:25 55 °F /  12.8 °C 43.2 °F /  6.2 °C 30.5in /  1032.7hPa NW 2mph /  3.2km/h 2.3mph /  3.7km/h 64% 0in /  0.0mm CLR
10:30 55.2 °F /  12.9 °C 43.7 °F /  6.5 °C 30.5in /  1032.7hPa NW 1.8mph /  2.9km/h 2.3mph /  3.7km/h 65% 0in /  0.0mm CLR
10:35 55.6 °F /  13.1 °C 43.5 °F /  6.4 °C 30.5in /  1032.8hPa NW 1.8mph /  2.9km/h 2.3mph /  3.7km/h 64% 0in /  0.0mm CLR
10:40 55.8 °F /  13.2 °C 43.3 °F /  6.3 °C 30.5in /  1032.8hPa North 1.4mph /  2.3km/h 4.6mph /  7.4km/h 63% 0in /  0.0mm CLR
10:45 55.8 °F /  13.2 °C 43.3 °F /  6.3 °C 30.5in /  1032.8hPa East 1.4mph /  2.3km/h 5.8mph /  9.3km/h 63% 0in /  0.0mm CLR
10:50 55.8 °F /  13.2 °C 43.9 °F /  6.6 °C 30.5in /  1032.8hPa NE 2.9mph /  4.7km/h 4.6mph /  7.4km/h 64% 0in /  0.0mm CLR
10:55 55.9 °F /  13.3 °C 43.9 °F /  6.6 °C 30.5in /  1032.8hPa NE 2.9mph /  4.7km/h 3.5mph /  5.6km/h 64% 0in /  0.0mm CLR
11:00 56.1 °F /  13.4 °C 43.7 °F /  6.5 °C 30.5in /  1032.8hPa NE 2mph /  3.2km/h 5mph /  8.0km/h 63% 0in /  0.0mm CLR
11:05 56.1 °F /  13.4 °C 44.1 °F /  6.7 °C 30.5in /  1032.9hPa NE 2.4mph /  3.9km/h 3.1mph /  5.0km/h 64% 0in /  0.0mm CLR
11:10 55.9 °F /  13.3 °C 43.9 °F /  6.6 °C 30.5in /  1032.9hPa NE 3.1mph /  5.0km/h 8.1mph /  13.0km/h 64% 0in /  0.0mm CLR
11:15 55.9 °F /  13.3 °C 43.9 °F /  6.6 °C 30.5in /  1032.9hPa NE 3.1mph /  5.0km/h 9.2mph /  14.8km/h 64% 0in /  0.0mm CLR
11:20 56.5 °F /  13.6 °C 43.2 °F /  6.2 °C 30.5in /  1032.8hPa NE 5.9mph /  9.5km/h 8.1mph /  13.0km/h 61% 0in /  0.0mm CLR
11:25 56.5 °F /  13.6 °C 43.2 °F /  6.2 °C 30.5in /  1032.8hPa NE 5.9mph /  9.5km/h 10.4mph /  16.7km/h 61% 0in /  0.0mm CLR
11:30 56.5 °F /  13.6 °C 43.2 °F /  6.2 °C 30.5in /  1032.8hPa NNE 6.9mph /  11.1km/h 11.5mph /  18.5km/h 61% 0in /  0.0mm CLR
11:35 56.5 °F /  13.6 °C 43.2 °F /  6.2 °C 30.5in /  1032.9hPa NE 6.9mph /  11.1km/h 12.7mph /  20.4km/h 61% 0in /  0.0mm CLR
11:40 56.1 °F /  13.4 °C 42.8 °F /  6.0 °C 30.5in /  1032.9hPa ENE 8.7mph /  14.0km/h 15mph /  24.1km/h 61% 0in /  0.0mm CLR
11:45 56.3 °F /  13.5 °C 43.3 °F /  6.3 °C 30.5in /  1032.9hPa NE 8.7mph /  14.0km/h 8.1mph /  13.0km/h 62% 0in /  0.0mm CLR
11:50 56.7 °F /  13.7 °C 43.3 °F /  6.3 °C 30.5in /  1032.8hPa NE 8.1mph /  13.0km/h 10.4mph /  16.7km/h 61% 0in /  0.0mm CLR
11:55 56.7 °F /  13.7 °C 43.3 °F /  6.3 °C 30.5in /  1032.8hPa NNE 8.1mph /  13.0km/h 11.5mph /  18.5km/h 61% 0in /  0.0mm CLR
12:00 56.8 °F /  13.8 °C 43.5 °F /  6.4 °C 30.5in /  1032.8hPa NNE 8mph /  12.9km/h 13mph /  20.9km/h 61% 0in /  0.0mm CLR
12:05 56.7 °F /  13.7 °C 43.9 °F /  6.6 °C 30.5in /  1032.7hPa NE 7.6mph /  12.2km/h 11.8mph /  19.0km/h 62% 0in /  0.0mm CLR
12:10 56.5 °F /  13.6 °C 43.5 °F /  6.4 °C 30.5in /  1032.7hPa NNE 10.2mph /  16.4km/h 15mph /  24.1km/h 62% 0in /  0.0mm CLR
12:15 56.5 °F /  13.6 °C 43.5 °F /  6.4 °C 30.5in /  1032.7hPa East 10.2mph /  16.4km/h 12.7mph /  20.4km/h 62% 0in /  0.0mm CLR
12:20 56.5 °F /  13.6 °C 43.5 °F /  6.4 °C 30.5in /  1032.8hPa ENE 9.2mph /  14.8km/h 12.7mph /  20.4km/h 62% 0in /  0.0mm CLR
12:25 56.7 °F /  13.7 °C 43.3 °F /  6.3 °C 30.5in /  1032.8hPa NE 9.2mph /  14.8km/h 11.5mph /  18.5km/h 61% 0in /  0.0mm CLR
12:30 56.8 °F /  13.8 °C 43.5 °F /  6.4 °C 30.5in /  1032.8hPa NE 7.6mph /  12.2km/h 13.8mph /  22.2km/h 61% 0in /  0.0mm CLR
12:35 57.6 °F /  14.2 °C 43.9 °F /  6.6 °C 30.5in /  1032.4hPa NE 7.6mph /  12.2km/h 13.8mph /  22.2km/h 60% 0in /  0.0mm CLR
12:40 57.6 °F /  14.2 °C 43.9 °F /  6.6 °C 30.5in /  1032.4hPa NE 7.4mph /  11.9km/h 13.8mph /  22.2km/h 60% 0in /  0.0mm CLR
12:45 57 °F /  13.9 °C 43.3 °F /  6.3 °C 30.5in /  1032.4hPa NE 7.4mph /  11.9km/h 12.7mph /  20.4km/h 60% 0in /  0.0mm CLR
12:50 56.8 °F /  13.8 °C 43.5 °F /  6.4 °C 30.5in /  1032.2hPa North 9.2mph /  14.8km/h 9.2mph /  14.8km/h 61% 0in /  0.0mm CLR
12:55 57.6 °F /  14.2 °C 43.9 °F /  6.6 °C 30.5in /  1032.2hPa NE 9.2mph /  14.8km/h 9.2mph /  14.8km/h 60% 0in /  0.0mm CLR
13:00 57.6 °F /  14.2 °C 43.3 °F /  6.3 °C 30.5in /  1032.2hPa NE 7mph /  11.3km/h 13mph /  20.9km/h 59% 0in /  0.0mm CLR
13:05 58.1 °F /  14.5 °C 43.3 °F /  6.3 °C 30.5in /  1031.9hPa NE 6.9mph /  11.1km/h 12.7mph /  20.4km/h 58% 0in /  0.0mm CLR
13:10 58.1 °F /  14.5 °C 43.3 °F /  6.3 °C 30.5in /  1031.9hPa ESE 7.4mph /  11.9km/h 7.6mph /  12.2km/h 58% 0in /  0.0mm CLR
13:15 58.3 °F /  14.6 °C 43.2 °F /  6.2 °C 30.5in /  1031.9hPa NE 7.4mph /  11.9km/h 15mph /  24.1km/h 57% 0in /  0.0mm CLR
13:20 58.3 °F /  14.6 °C 42.6 °F /  5.9 °C 30.5in /  1031.7hPa NE 8.5mph /  13.7km/h 10.4mph /  16.7km/h 56% 0in /  0.0mm CLR
13:25 58.6 °F /  14.8 °C 43 °F /  6.1 °C 30.5in /  1031.7hPa NE 8.5mph /  13.7km/h 15.6mph /  25.1km/h 56% 0in /  0.0mm CLR
13:30 58.5 °F /  14.7 °C 43.3 °F /  6.3 °C 30.5in /  1031.7hPa East 8.5mph /  13.7km/h 15mph /  24.1km/h 57% 0in /  0.0mm CLR
13:35 58.3 °F /  14.6 °C 43.2 °F /  6.2 °C 30.5in /  1031.6hPa NNE 8.5mph /  13.7km/h 10.4mph /  16.7km/h 57% 0in /  0.0mm CLR
13:40 58.1 °F /  14.5 °C 43 °F /  6.1 °C 30.5in /  1031.6hPa NNE 8.7mph /  14.0km/h 13.8mph /  22.2km/h 57% 0in /  0.0mm CLR
13:45 58.3 °F /  14.6 °C 43.5 °F /  6.4 °C 30.5in /  1031.6hPa NE 8.7mph /  14.0km/h 16.1mph /  25.9km/h 58% 0in /  0.0mm CLR
13:50 58.3 °F /  14.6 °C 43.2 °F /  6.2 °C 30.5in /  1031.3hPa NE 9.7mph /  15.6km/h 15mph /  24.1km/h 57% 0in /  0.0mm CLR
13:55 58.1 °F /  14.5 °C 43 °F /  6.1 °C 30.5in /  1031.3hPa North 9.7mph /  15.6km/h 11.5mph /  18.5km/h 57% 0in /  0.0mm CLR
14:00 58.1 °F /  14.5 °C 43.3 °F /  6.3 °C 30.5in /  1031.3hPa NE 9mph /  14.5km/h 15mph /  24.1km/h 58% 0in /  0.0mm CLR
14:05 58.5 °F /  14.7 °C 43.3 °F /  6.3 °C 30.5in /  1031.1hPa ENE 9.2mph /  14.8km/h 16.1mph /  25.9km/h 57% 0in /  0.0mm CLR
14:10 58.6 °F /  14.8 °C 43.3 °F /  6.3 °C 30.5in /  1031.1hPa NE 8.1mph /  13.0km/h 14mph /  22.5km/h 57% 0in /  0.0mm CLR
14:15 58.3 °F /  14.6 °C 43.5 °F /  6.4 °C 30.5in /  1031.1hPa NE 8.1mph /  13.0km/h 13.8mph /  22.2km/h 58% 0in /  0.0mm CLR
14:20 58.1 °F /  14.5 °C 43.3 °F /  6.3 °C 30.4in /  1031.0hPa NNE 9.2mph /  14.8km/h 12.7mph /  20.4km/h 58% 0in /  0.0mm CLR
14:25 58.5 °F /  14.7 °C 43.7 °F /  6.5 °C 30.4in /  1031.0hPa ENE 9.2mph /  14.8km/h 9.2mph /  14.8km/h 58% 0in /  0.0mm CLR
14:30 58.6 °F /  14.8 °C 43.9 °F /  6.6 °C 30.4in /  1031.0hPa NE 8.5mph /  13.7km/h 10.4mph /  16.7km/h 58% 0in /  0.0mm CLR
14:35 58.5 °F /  14.7 °C 43.7 °F /  6.5 °C 30.4in /  1030.8hPa NNE 8.5mph /  13.7km/h 13.8mph /  22.2km/h 58% 0in /  0.0mm CLR
14:40 58.5 °F /  14.7 °C 44.2 °F /  6.8 °C 30.4in /  1030.8hPa NE 8.5mph /  13.7km/h 11.5mph /  18.5km/h 59% 0in /  0.0mm CLR
14:45 58.5 °F /  14.7 °C 44.2 °F /  6.8 °C 30.4in /  1030.8hPa NNE 8.5mph /  13.7km/h 10.4mph /  16.7km/h 59% 0in /  0.0mm CLR
14:50 58.5 °F /  14.7 °C 44.2 °F /  6.8 °C 30.4in /  1030.6hPa NNE 7.6mph /  12.2km/h 12.7mph /  20.4km/h 59% 0in /  0.0mm CLR
14:55 58.1 °F /  14.5 °C 43.9 °F /  6.6 °C 30.4in /  1030.6hPa NE 7.6mph /  12.2km/h 12.7mph /  20.4km/h 59% 0in /  0.0mm CLR
15:00 58.3 °F /  14.6 °C 44.4 °F /  6.9 °C 30.4in /  1030.6hPa NE 9mph /  14.5km/h 14mph /  22.5km/h 60% 0in /  0.0mm CLR
15:05 58.5 °F /  14.7 °C 44.6 °F /  7.0 °C 30.4in /  1030.4hPa ENE 9.7mph /  15.6km/h 6.9mph /  11.1km/h 60% 0in /  0.0mm CLR
15:10 58.8 °F /  14.9 °C 44.1 °F /  6.7 °C 30.4in /  1030.4hPa NE 7.6mph /  12.2km/h 11.5mph /  18.5km/h 58% 0in /  0.0mm CLR
15:15 58.8 °F /  14.9 °C 43.5 °F /  6.4 °C 30.4in /  1030.4hPa NNE 7.6mph /  12.2km/h 8.5mph /  13.7km/h 57% 0in /  0.0mm CLR
15:20 59.2 °F /  15.1 °C 44.4 °F /  6.9 °C 30.4in /  1030.3hPa NE 7.6mph /  12.2km/h 11.5mph /  18.5km/h 58% 0in /  0.0mm CLR
15:25 59.7 °F /  15.4 °C 44.4 °F /  6.9 °C 30.4in /  1030.3hPa NE 7.6mph /  12.2km/h 10.4mph /  16.7km/h 57% 0in /  0.0mm CLR
15:30 59.4 °F /  15.2 °C 44.6 °F /  7.0 °C 30.4in /  1030.3hPa NE 7.4mph /  11.9km/h 12.7mph /  20.4km/h 58% 0in /  0.0mm CLR
15:35 59.2 °F /  15.1 °C 44.4 °F /  6.9 °C 30.4in /  1030.1hPa ESE 7.4mph /  11.9km/h 15.2mph /  24.5km/h 58% 0in /  0.0mm CLR
15:40 59.2 °F /  15.1 °C 44.4 °F /  6.9 °C 30.4in /  1030.1hPa NE 7.6mph /  12.2km/h 11.5mph /  18.5km/h 58% 0in /  0.0mm CLR
15:45 59.4 °F /  15.2 °C 44.6 °F /  7.0 °C 30.4in /  1030.1hPa ENE 7.6mph /  12.2km/h 10.4mph /  16.7km/h 58% 0in /  0.0mm CLR
15:50 59.4 °F /  15.2 °C 44.6 °F /  7.0 °C 30.4in /  1030.0hPa NE 5.9mph /  9.5km/h 11.5mph /  18.5km/h 58% 0in /  0.0mm CLR
15:55 59.2 °F /  15.1 °C 44.4 °F /  6.9 °C 30.4in /  1030.0hPa NNE 5.9mph /  9.5km/h 13.8mph /  22.2km/h 58% 0in /  0.0mm CLR
16:00 59.2 °F /  15.1 °C 44.4 °F /  6.9 °C 30.4in /  1030.0hPa NE 9mph /  14.5km/h 13mph /  20.9km/h 58% 0in /  0.0mm CLR
16:05 59.5 °F /  15.3 °C 45.7 °F /  7.6 °C 30.4in /  1030.0hPa NE 8.7mph /  14.0km/h 17.5mph /  28.2km/h 60% 0in /  0.0mm CLR
16:10 59.4 °F /  15.2 °C 45.9 °F /  7.7 °C 30.4in /  1030.0hPa NE 7.6mph /  12.2km/h 13.8mph /  22.2km/h 61% 0in /  0.0mm CLR
16:15 59.2 °F /  15.1 °C 45.7 °F /  7.6 °C 30.4in /  1030.0hPa NE 7.6mph /  12.2km/h 15mph /  24.1km/h 61% 0in /  0.0mm CLR
16:20 58.8 °F /  14.9 °C 45.3 °F /  7.4 °C 30.4in /  1029.8hPa NNE 8.1mph /  13.0km/h 9.2mph /  14.8km/h 61% 0in /  0.0mm CLR
16:25 58.6 °F /  14.8 °C 45.7 °F /  7.6 °C 30.4in /  1029.8hPa ENE 8.1mph /  13.0km/h 19.6mph /  31.5km/h 62% 0in /  0.0mm CLR
16:30 58.5 °F /  14.7 °C 45.9 °F /  7.7 °C 30.4in /  1029.8hPa North 8.7mph /  14.0km/h 10.4mph /  16.7km/h 63% 0in /  0.0mm CLR
16:35 58.6 °F /  14.8 °C 46 °F /  7.8 °C 30.4in /  1029.9hPa NE 8.7mph /  14.0km/h 12.3mph /  19.8km/h 63% 0in /  0.0mm CLR
16:40 58.3 °F /  14.6 °C 45.7 °F /  7.6 °C 30.4in /  1029.9hPa North 7.4mph /  11.9km/h 11.5mph /  18.5km/h 63% 0in /  0.0mm CLR
16:45 58.1 °F /  14.5 °C 46 °F /  7.8 °C 30.4in /  1029.9hPa NE 7.4mph /  11.9km/h 10.4mph /  16.7km/h 64% 0in /  0.0mm CLR
16:50 58.3 °F /  14.6 °C 46.2 °F /  7.9 °C 30.4in /  1029.8hPa NNE 8.1mph /  13.0km/h 17.3mph /  27.8km/h 64% 0in /  0.0mm CLR
16:55 58.1 °F /  14.5 °C 45.7 °F /  7.6 °C 30.4in /  1029.8hPa North 8.1mph /  13.0km/h 17.3mph /  27.8km/h 63% 0in /  0.0mm CLR
17:00 57.9 °F /  14.4 °C 45.3 °F /  7.4 °C 30.4in /  1029.8hPa NE 9mph /  14.5km/h 16mph /  25.7km/h 63% 0in /  0.0mm CLR
17:05 57.7 °F /  14.3 °C 45.7 °F /  7.6 °C 30.4in /  1029.7hPa NNE 9.2mph /  14.8km/h 10.4mph /  16.7km/h 64% 0in /  0.0mm CLR
17:10 57.6 °F /  14.2 °C 45.5 °F /  7.5 °C 30.4in /  1029.7hPa North 9.2mph /  14.8km/h 13.8mph /  22.2km/h 64% 0in /  0.0mm CLR
17:15 57.4 °F /  14.1 °C 45.7 °F /  7.6 °C 30.4in /  1029.7hPa ENE 9.2mph /  14.8km/h 13.8mph /  22.2km/h 65% 0in /  0.0mm CLR
17:20 57.4 °F /  14.1 °C 45.7 °F /  7.6 °C 30.4in /  1029.7hPa ENE 7.6mph /  12.2km/h 10.4mph /  16.7km/h 65% 0in /  0.0mm CLR
17:25 57.6 °F /  14.2 °C 46.2 °F /  7.9 °C 30.4in /  1029.7hPa NE 7.6mph /  12.2km/h 10.4mph /  16.7km/h 66% 0in /  0.0mm CLR
17:30 57.6 °F /  14.2 °C 46.2 °F /  7.9 °C 30.4in /  1029.7hPa ENE 7.4mph /  11.9km/h 10.4mph /  16.7km/h 66% 0in /  0.0mm CLR
17:35 57.4 °F /  14.1 °C 46.6 °F /  8.1 °C 30.4in /  1029.6hPa ENE 7.4mph /  11.9km/h 13.8mph /  22.2km/h 67% 0in /  0.0mm CLR
17:40 57 °F /  13.9 °C 46.2 °F /  7.9 °C 30.4in /  1029.6hPa East 9.2mph /  14.8km/h 9.2mph /  14.8km/h 67% 0in /  0.0mm CLR
17:45 56.8 °F /  13.8 °C 46.4 °F /  8.0 °C 30.4in /  1029.6hPa NE 9.2mph /  14.8km/h 6.9mph /  11.1km/h 68% 0in /  0.0mm CLR
17:50 56.8 °F /  13.8 °C 46.4 °F /  8.0 °C 30.4in /  1029.6hPa ESE 5.9mph /  9.5km/h 8.1mph /  13.0km/h 68% 0in /  0.0mm CLR
17:55 57 °F /  13.9 °C 46.6 °F /  8.1 °C 30.4in /  1029.6hPa ENE 5.9mph /  9.5km/h 6.9mph /  11.1km/h 68% 0in /  0.0mm CLR
18:00 57 °F /  13.9 °C 46.6 °F /  8.1 °C 30.4in /  1029.6hPa ENE 5mph /  8.0km/h 10mph /  16.1km/h 68% 0in /  0.0mm CLR
18:05 57 °F /  13.9 °C 46.2 °F /  7.9 °C 30.4in /  1029.4hPa East 4.3mph /  6.9km/h 5.8mph /  9.3km/h 67% 0in /  0.0mm CLR
18:10 57 °F /  13.9 °C 46.2 °F /  7.9 °C 30.4in /  1029.4hPa East 5.2mph /  8.4km/h 6.9mph /  11.1km/h 67% 0in /  0.0mm CLR
18:15 57.2 °F /  14.0 °C 46.2 °F /  7.9 °C 30.4in /  1029.4hPa East 5.2mph /  8.4km/h 6.9mph /  11.1km/h 67% 0in /  0.0mm CLR
18:20 57 °F /  13.9 °C 46.2 °F /  7.9 °C 30.4in /  1029.5hPa NE 4.3mph /  6.9km/h 12.7mph /  20.4km/h 67% 0in /  0.0mm CLR
18:25 56.8 °F /  13.8 °C 46.4 °F /  8.0 °C 30.4in /  1029.5hPa NE 4.3mph /  6.9km/h 9.7mph /  15.6km/h 68% 0in /  0.0mm CLR
18:30 56.7 °F /  13.7 °C 46.6 °F /  8.1 °C 30.4in /  1029.5hPa East 7.6mph /  12.2km/h 9.2mph /  14.8km/h 69% 0in /  0.0mm CLR
18:35 56.5 °F /  13.6 °C 46.4 °F /  8.0 °C 30.4in /  1029.6hPa ENE 7.6mph /  12.2km/h 10.4mph /  16.7km/h 69% 0in /  0.0mm CLR
18:40 56.1 °F /  13.4 °C 46.6 °F /  8.1 °C 30.4in /  1029.6hPa NE 6.2mph /  10.0km/h 9.2mph /  14.8km/h 70% 0in /  0.0mm CLR
18:45 55.9 °F /  13.3 °C 46.8 °F /  8.2 °C 30.4in /  1029.6hPa ENE 6.2mph /  10.0km/h 8.1mph /  13.0km/h 71% 0in /  0.0mm CLR
18:50 55.8 °F /  13.2 °C 46.9 °F /  8.3 °C 30.4in /  1029.7hPa ENE 6.2mph /  10.0km/h 8.1mph /  13.0km/h 72% 0in /  0.0mm CLR
18:55 55.6 °F /  13.1 °C 46.8 °F /  8.2 °C 30.4in /  1029.7hPa NE 6.2mph /  10.0km/h 5.9mph /  9.5km/h 72% 0in /  0.0mm CLR
19:00 55.6 °F /  13.1 °C 46.8 °F /  8.2 °C 30.4in /  1029.7hPa NE 5mph /  8.0km/h 9mph /  14.5km/h 72% 0in /  0.0mm CLR
19:05 55.4 °F /  13.0 °C 46.9 °F /  8.3 °C 30.4in /  1029.8hPa NE 5.2mph /  8.4km/h 6.9mph /  11.1km/h 73% 0in /  0.0mm CLR
19:10 55.2 °F /  12.9 °C 46.8 °F /  8.2 °C 30.4in /  1029.8hPa NE 4.7mph /  7.6km/h 6.9mph /  11.1km/h 73% 0in /  0.0mm CLR
19:15 55.2 °F /  12.9 °C 46.8 °F /  8.2 °C 30.4in /  1029.8hPa NE 4.7mph /  7.6km/h 6.9mph /  11.1km/h 73% 0in /  0.0mm CLR
19:20 55 °F /  12.8 °C 46.6 °F /  8.1 °C 30.4in /  1029.9hPa NE 5.2mph /  8.4km/h 6.9mph /  11.1km/h 73% 0in /  0.0mm CLR
19:25 54.9 °F /  12.7 °C 46.8 °F /  8.2 °C 30.4in /  1029.9hPa NE 5.2mph /  8.4km/h 5.8mph /  9.3km/h 74% 0in /  0.0mm CLR
19:30 54.9 °F /  12.7 °C 46.8 °F /  8.2 °C 30.4in /  1029.9hPa NE 4.3mph /  6.9km/h 4.6mph /  7.4km/h 74% 0in /  0.0mm CLR
19:35 54.5 °F /  12.5 °C 46.4 °F /  8.0 °C 30.4in /  1030.0hPa ENE 4.3mph /  6.9km/h 6.9mph /  11.1km/h 74% 0in /  0.0mm CLR
19:40 54.3 °F /  12.4 °C 46.6 °F /  8.1 °C 30.4in /  1030.0hPa NE 4mph /  6.4km/h 5.8mph /  9.3km/h 75% 0in /  0.0mm CLR
19:45 54.1 °F /  12.3 °C 46.4 °F /  8.0 °C 30.4in /  1030.0hPa NE 4mph /  6.4km/h 5.8mph /  9.3km/h 75% 0in /  0.0mm CLR
19:50 54 °F /  12.2 °C 46.6 °F /  8.1 °C 30.4in /  1030.0hPa NNE 4.3mph /  6.9km/h 5.8mph /  9.3km/h 76% 0in /  0.0mm CLR
19:55 53.8 °F /  12.1 °C 46.4 °F /  8.0 °C 30.4in /  1030.0hPa NE 4.3mph /  6.9km/h 5.8mph /  9.3km/h 76% 0in /  0.0mm CLR
20:00 53.8 °F /  12.1 °C 46.8 °F /  8.2 °C 30.4in /  1030.0hPa NE 5mph /  8.0km/h 6mph /  9.7km/h 77% 0in /  0.0mm CLR
20:05 53.8 °F /  12.1 °C 46.8 °F /  8.2 °C 30.4in /  1030.0hPa NE 4.3mph /  6.9km/h 5.8mph /  9.3km/h 77% 0in /  0.0mm CLR
20:10 53.8 °F /  12.1 °C 46.8 °F /  8.2 °C 30.4in /  1030.0hPa NE 3.6mph /  5.8km/h 5.8mph /  9.3km/h 77% 0in /  0.0mm CLR
20:15 53.6 °F /  12.0 °C 46.6 °F /  8.1 °C 30.4in /  1030.0hPa NE 3.6mph /  5.8km/h 4.6mph /  7.4km/h 77% 0in /  0.0mm CLR
20:20 53.6 °F /  12.0 °C 46.6 °F /  8.1 °C 30.4in /  1030.0hPa NE 3.6mph /  5.8km/h 4.6mph /  7.4km/h 77% 0in /  0.0mm CLR
20:25 53.4 °F /  11.9 °C 46.4 °F /  8.0 °C 30.4in /  1030.0hPa NE 3.6mph /  5.8km/h 2.3mph /  3.7km/h 77% 0in /  0.0mm CLR
20:30 53.2 °F /  11.8 °C 46.6 °F /  8.1 °C 30.4in /  1030.0hPa NE 2.4mph /  3.9km/h 3.6mph /  5.8km/h 78% 0in /  0.0mm CLR
20:35 53.2 °F /  11.8 °C 46.6 °F /  8.1 °C 30.4in /  1029.9hPa NE 2.4mph /  3.9km/h 4.6mph /  7.4km/h 78% 0in /  0.0mm CLR
20:40 53.1 °F /  11.7 °C 46.4 °F /  8.0 °C 30.4in /  1029.9hPa NNE 2.9mph /  4.7km/h 4.6mph /  7.4km/h 78% 0in /  0.0mm CLR
20:45 53.1 °F /  11.7 °C 46.4 °F /  8.0 °C 30.4in /  1029.9hPa North 2.9mph /  4.7km/h 2.3mph /  3.7km/h 78% 0in /  0.0mm CLR
20:50 52.9 °F /  11.6 °C 46.6 °F /  8.1 °C 30.4in /  1029.8hPa North 2.4mph /  3.9km/h 3.5mph /  5.6km/h 79% 0in /  0.0mm CLR
20:55 52.9 °F /  11.6 °C 46.6 °F /  8.1 °C 30.4in /  1029.8hPa North 2.4mph /  3.9km/h 2mph /  3.2km/h 79% 0in /  0.0mm CLR
21:00 52.9 °F /  11.6 °C 46.6 °F /  8.1 °C 30.4in /  1029.8hPa North 2mph /  3.2km/h 3mph /  4.8km/h 79% 0in /  0.0mm CLR
21:05 52.9 °F /  11.6 °C 46.6 °F /  8.1 °C 30.4in /  1029.8hPa North 1.8mph /  2.9km/h 2.3mph /  3.7km/h 79% 0in /  0.0mm CLR
21:10 52.7 °F /  11.5 °C 46.4 °F /  8.0 °C 30.4in /  1029.8hPa North 1.4mph /  2.3km/h 2.3mph /  3.7km/h 79% 0in /  0.0mm CLR
21:15 52.9 °F /  11.6 °C 46.6 °F /  8.1 °C 30.4in /  1029.8hPa North 1.4mph /  2.3km/h 1.8mph /  2.9km/h 79% 0in /  0.0mm CLR
21:20 52.7 °F /  11.5 °C 46.4 °F /  8.0 °C 30.4in /  1029.8hPa North 1.4mph /  2.3km/h 3.5mph /  5.6km/h 79% 0in /  0.0mm CLR
21:25 52.9 °F /  11.6 °C 46.6 °F /  8.1 °C 30.4in /  1029.8hPa North 1.4mph /  2.3km/h 2.3mph /  3.7km/h 79% 0in /  0.0mm CLR
21:30 52.9 °F /  11.6 °C 46.6 °F /  8.1 °C 30.4in /  1029.8hPa NNE 1.4mph /  2.3km/h 4.6mph /  7.4km/h 79% 0in /  0.0mm CLR
21:35 52.7 °F /  11.5 °C 46.4 °F /  8.0 °C 30.4in /  1029.8hPa NNE 1.4mph /  2.3km/h 4.6mph /  7.4km/h 79% 0in /  0.0mm CLR
21:40 52.7 °F /  11.5 °C 46.4 °F /  8.0 °C 30.4in /  1029.8hPa ENE 2.4mph /  3.9km/h 4.6mph /  7.4km/h 79% 0in /  0.0mm CLR
21:45 52.7 °F /  11.5 °C 46.4 °F /  8.0 °C 30.4in /  1029.8hPa NE 2.4mph /  3.9km/h 2.4mph /  3.9km/h 79% 0in /  0.0mm CLR
21:50 52.7 °F /  11.5 °C 46.4 °F /  8.0 °C 30.4in /  1030.0hPa NE 2mph /  3.2km/h   79% 0in /  0.0mm CLR
21:55 52.7 °F /  11.5 °C 46.4 °F /  8.0 °C 30.4in /  1030.0hPa NE 2mph /  3.2km/h   79% 0in /  0.0mm CLR
22:00 52.7 °F /  11.5 °C 46.4 °F /  8.0 °C 30.4in /  1030.0hPa Calm   5mph /  8.0km/h 79% 0in /  0.0mm CLR
22:05 52.7 °F /  11.5 °C 46.4 °F /  8.0 °C 30.4in /  1029.9hPa Calm   2.9mph /  4.7km/h 79% 0in /  0.0mm CLR
22:10 52.7 °F /  11.5 °C 46.4 °F /  8.0 °C 30.4in /  1029.9hPa ENE 2mph /  3.2km/h 2.3mph /  3.7km/h 79% 0in /  0.0mm CLR
22:15 52.5 °F /  11.4 °C 46.2 °F /  7.9 °C 30.4in /  1029.9hPa ENE 2mph /  3.2km/h 4.6mph /  7.4km/h 79% 0in /  0.0mm CLR
22:20 52.5 °F /  11.4 °C 46.2 °F /  7.9 °C 30.4in /  1030.0hPa ENE 2mph /  3.2km/h 3.5mph /  5.6km/h 79% 0in /  0.0mm CLR
22:25 52.5 °F /  11.4 °C 46.2 °F /  7.9 °C 30.4in /  1030.0hPa ENE 2mph /  3.2km/h 3.6mph /  5.8km/h 79% 0in /  0.0mm CLR
22:30 52.5 °F /  11.4 °C 46.2 °F /  7.9 °C 30.4in /  1030.0hPa NE 2mph /  3.2km/h 2.9mph /  4.7km/h 79% 0in /  0.0mm CLR
22:35 52.5 °F /  11.4 °C 46.2 °F /  7.9 °C 30.4in /  1030.0hPa NE 2mph /  3.2km/h 3.5mph /  5.6km/h 79% 0in /  0.0mm CLR
22:40 52.5 °F /  11.4 °C 46.2 °F /  7.9 °C 30.4in /  1030.0hPa NE 2mph /  3.2km/h 3.5mph /  5.6km/h 79% 0in /  0.0mm CLR
22:45 52.5 °F /  11.4 °C 46.2 °F /  7.9 °C 30.4in /  1030.0hPa NE 2mph /  3.2km/h 2.4mph /  3.9km/h 79% 0in /  0.0mm CLR
22:50 52.5 °F /  11.4 °C 46.2 °F /  7.9 °C 30.4in /  1030.0hPa NE 1.8mph /  2.9km/h   79% 0in /  0.0mm CLR
22:55 52.5 °F /  11.4 °C 46.2 °F /  7.9 °C 30.4in /  1030.0hPa NE 1.8mph /  2.9km/h   79% 0in /  0.0mm CLR
23:00 52.5 °F /  11.4 °C 46.2 °F /  7.9 °C 30.4in /  1030.0hPa Calm   2mph /  3.2km/h 79% 0in /  0.0mm CLR
23:05 52.5 °F /  11.4 °C 46.2 °F /  7.9 °C 30.4in /  1030.0hPa Calm   4.6mph /  7.4km/h 79% 0in /  0.0mm CLR
23:10 52.5 °F /  11.4 °C 46.2 °F /  7.9 °C 30.4in /  1030.0hPa East 1.8mph /  2.9km/h   79% 0in /  0.0mm CLR
23:15 52.5 °F /  11.4 °C 46.2 °F /  7.9 °C 30.4in /  1030.0hPa East 1.8mph /  2.9km/h   79% 0in /  0.0mm CLR
23:20 52.5 °F /  11.4 °C 46.2 °F /  7.9 °C 30.4in /  1030.1hPa Calm     79% 0in /  0.0mm CLR
23:25 52.5 °F /  11.4 °C 46.2 °F /  7.9 °C 30.4in /  1030.1hPa Calm     79% 0in /  0.0mm CLR
23:30 52.5 °F /  11.4 °C 46.2 °F /  7.9 °C 30.4in /  1030.1hPa Calm     79% 0in /  0.0mm CLR
23:35 52.5 °F /  11.4 °C 46.2 °F /  7.9 °C 30.4in /  1030.0hPa Calm     79% 0in /  0.0mm CLR
23:40 52.5 °F /  11.4 °C 46.2 °F /  7.9 °C 30.4in /  1030.0hPa Calm   2.3mph /  3.7km/h 79% 0in /  0.0mm CLR
23:45 52.5 °F /  11.4 °C 46.2 °F /  7.9 °C 30.4in /  1030.0hPa Calm     79% 0in /  0.0mm CLR
23:50 52.5 °F /  11.4 °C 46.2 °F /  7.9 °C 30.4in /  1030.0hPa Calm     79% 0in /  0.0mm CLR
23:55 52.5 °F /  11.4 °C 46.2 °F /  7.9 °C 30.4in /  1030.0hPa Calm     79% 0in /  0.0mm CLR
Murcia-Puente Tocinos, España
Compliments of Weather Underground - 2.75 mb

La estación de MeteoMurcia.com, publica sus datos en los siguientes proyectos:

Weather Underground PWS IMURCIAP2 Meteoclimatic www.awekas.at

W3Counter
Web Analytics